The Pas, Canada
Current Conditions -  °F | °C
As of 6:00 AM on Thursday 23 Oct 2014 (Local Time) from CYQD Reporting Station
Overcast Overcast  
Wind Chill: 42°   Ceiling: 600
Heat Index: 46°   Visibility: 15mi
Dew Point: 43°   Wind: 9mph
Humidity: 87%   Direction: 330°NNW
Pressure: 29.69"   Gusts: NA
Location:  53.81°N, 101.25°W
Report Text: CYQD 231100Z 33008KT 15SM OVC006 08/06 A2969 RMK ST8 SLP063
Loading
Personal Weather Stations






























Interactive Weather Map
Tropical Storm Tracking
New forecast layout! Learn more

10-Day Weather Forecast

Advertisements
Track Severe Weather on mobile